sensor_id;sensor_type;location;lat;lon;timestamp;temperature;humidity
44063;DHT22;29727;47.606;19.130;2023-07-31T00:00:27;21.50;78.50
44063;DHT22;29727;47.606;19.130;2023-07-31T00:02:52;21.60;78.50
44063;DHT22;29727;47.606;19.130;2023-07-31T00:05:18;21.50;77.70
44063;DHT22;29727;47.606;19.130;2023-07-31T00:07:44;21.50;78.40
44063;DHT22;29727;47.606;19.130;2023-07-31T00:10:09;21.50;78.00
44063;DHT22;29727;47.606;19.130;2023-07-31T00:12:35;21.50;78.50
44063;DHT22;29727;47.606;19.130;2023-07-31T00:15:01;21.60;78.40
44063;DHT22;29727;47.606;19.130;2023-07-31T00:17:28;21.50;78.30
44063;DHT22;29727;47.606;19.130;2023-07-31T00:19:53;21.50;77.90
44063;DHT22;29727;47.606;19.130;2023-07-31T00:22:19;21.50;78.30
44063;DHT22;29727;47.606;19.130;2023-07-31T00:24:44;21.50;77.80
44063;DHT22;29727;47.606;19.130;2023-07-31T00:27:10;21.50;78.50
44063;DHT22;29727;47.606;19.130;2023-07-31T00:29:36;21.50;78.50
44063;DHT22;29727;47.606;19.130;2023-07-31T00:32:01;21.50;78.30
44063;DHT22;29727;47.606;19.130;2023-07-31T00:34:27;21.50;78.40
44063;DHT22;29727;47.606;19.130;2023-07-31T00:36:53;21.50;78.20
44063;DHT22;29727;47.606;19.130;2023-07-31T00:39:18;21.50;78.40
44063;DHT22;29727;47.606;19.130;2023-07-31T00:41:44;21.60;78.80
44063;DHT22;29727;47.606;19.130;2023-07-31T00:44:10;21.60;78.40
44063;DHT22;29727;47.606;19.130;2023-07-31T00:46:36;21.60;78.50
44063;DHT22;29727;47.606;19.130;2023-07-31T00:49:02;21.60;78.60
44063;DHT22;29727;47.606;19.130;2023-07-31T00:51:28;21.50;78.00
44063;DHT22;29727;47.606;19.130;2023-07-31T00:53:54;21.50;77.90
44063;DHT22;29727;47.606;19.130;2023-07-31T00:56:23;21.50;77.80
44063;DHT22;29727;47.606;19.130;2023-07-31T00:58:49;21.40;78.60
44063;DHT22;29727;47.606;19.130;2023-07-31T01:01:15;21.40;78.80
44063;DHT22;29727;47.606;19.130;2023-07-31T01:03:41;21.40;78.80
44063;DHT22;29727;47.606;19.130;2023-07-31T01:11:52;21.40;79.00
44063;DHT22;29727;47.606;19.130;2023-07-31T01:14:18;21.50;79.30
44063;DHT22;29727;47.606;19.130;2023-07-31T01:16:44;21.50;79.30
44063;DHT22;29727;47.606;19.130;2023-07-31T01:19:11;21.60;78.60
44063;DHT22;29727;47.606;19.130;2023-07-31T01:24:22;21.60;79.10
44063;DHT22;29727;47.606;19.130;2023-07-31T01:26:56;21.70;78.90
44063;DHT22;29727;47.606;19.130;2023-07-31T01:29:31;21.70;78.80
44063;DHT22;29727;47.606;19.130;2023-07-31T01:32:01;21.70;78.30
44063;DHT22;29727;47.606;19.130;2023-07-31T01:34:29;22.50;79.00
44063;DHT22;29727;47.606;19.130;2023-07-31T01:36:56;21.60;78.90
44063;DHT22;29727;47.606;19.130;2023-07-31T01:39:22;21.60;79.10
44063;DHT22;29727;47.606;19.130;2023-07-31T01:41:48;21.60;79.00
44063;DHT22;29727;47.606;19.130;2023-07-31T01:44:14;21.60;79.10
44063;DHT22;29727;47.606;19.130;2023-07-31T01:46:39;21.60;79.50
44063;DHT22;29727;47.606;19.130;2023-07-31T01:49:06;21.60;79.40
44063;DHT22;29727;47.606;19.130;2023-07-31T01:51:32;21.60;79.40
44063;DHT22;29727;47.606;19.130;2023-07-31T01:54:01;21.60;79.00
44063;DHT22;29727;47.606;19.130;2023-07-31T01:56:27;21.60;79.50
44063;DHT22;29727;47.606;19.130;2023-07-31T01:58:53;21.60;79.30
44063;DHT22;29727;47.606;19.130;2023-07-31T02:01:18;21.60;79.60
44063;DHT22;29727;47.606;19.130;2023-07-31T02:03:44;21.50;79.50
44063;DHT22;29727;47.606;19.130;2023-07-31T02:06:10;21.50;79.30
44063;DHT22;29727;47.606;19.130;2023-07-31T02:08:35;21.50;80.00
44063;DHT22;29727;47.606;19.130;2023-07-31T02:11:01;21.50;80.40
44063;DHT22;29727;47.606;19.130;2023-07-31T02:13:27;21.40;79.10
44063;DHT22;29727;47.606;19.130;2023-07-31T02:15:53;21.40;79.80
44063;DHT22;29727;47.606;19.130;2023-07-31T02:18:20;21.30;79.70
44063;DHT22;29727;47.606;19.130;2023-07-31T02:20:52;21.30;79.60
44063;DHT22;29727;47.606;19.130;2023-07-31T02:23:20;21.10;79.40
44063;DHT22;29727;47.606;19.130;2023-07-31T02:25:46;21.10;80.00
44063;DHT22;29727;47.606;19.130;2023-07-31T02:28:12;21.10;80.10
44063;DHT22;29727;47.606;19.130;2023-07-31T02:30:38;21.00;80.40
44063;DHT22;29727;47.606;19.130;2023-07-31T02:33:04;21.00;80.50
44063;DHT22;29727;47.606;19.130;2023-07-31T02:35:30;21.00;80.80
44063;DHT22;29727;47.606;19.130;2023-07-31T02:37:56;20.90;80.90
44063;DHT22;29727;47.606;19.130;2023-07-31T02:40:22;20.90;80.90
44063;DHT22;29727;47.606;19.130;2023-07-31T02:42:47;20.90;80.90
44063;DHT22;29727;47.606;19.130;2023-07-31T02:45:14;20.90;80.80
44063;DHT22;29727;47.606;19.130;2023-07-31T02:47:40;20.90;80.80
44063;DHT22;29727;47.606;19.130;2023-07-31T02:50:06;20.90;80.60
44063;DHT22;29727;47.606;19.130;2023-07-31T02:52:31;20.90;80.60
44063;DHT22;29727;47.606;19.130;2023-07-31T02:54:58;20.90;80.00
44063;DHT22;29727;47.606;19.130;2023-07-31T02:57:23;20.90;80.60
44063;DHT22;29727;47.606;19.130;2023-07-31T02:59:49;21.40;80.80
44063;DHT22;29727;47.606;19.130;2023-07-31T03:02:15;21.00;80.30
44063;DHT22;29727;47.606;19.130;2023-07-31T03:04:40;21.00;80.70
44063;DHT22;29727;47.606;19.130;2023-07-31T03:07:08;21.00;79.70
44063;DHT22;29727;47.606;19.130;2023-07-31T03:09:33;21.00;80.20
44063;DHT22;29727;47.606;19.130;2023-07-31T03:11:59;21.00;79.40
44063;DHT22;29727;47.606;19.130;2023-07-31T03:14:25;21.00;79.80
44063;DHT22;29727;47.606;19.130;2023-07-31T03:16:52;21.00;80.00
44063;DHT22;29727;47.606;19.130;2023-07-31T03:19:17;21.00;79.90
44063;DHT22;29727;47.606;19.130;2023-07-31T03:21:43;21.00;80.00
44063;DHT22;29727;47.606;19.130;2023-07-31T03:24:09;21.10;79.90
44063;DHT22;29727;47.606;19.130;2023-07-31T03:26:35;21.00;79.70
44063;DHT22;29727;47.606;19.130;2023-07-31T03:29:03;21.10;79.70
44063;DHT22;29727;47.606;19.130;2023-07-31T03:31:29;21.10;79.60
44063;DHT22;29727;47.606;19.130;2023-07-31T03:33:54;21.10;79.20
44063;DHT22;29727;47.606;19.130;2023-07-31T03:36:20;21.10;79.20
44063;DHT22;29727;47.606;19.130;2023-07-31T03:38:46;21.10;79.10
44063;DHT22;29727;47.606;19.130;2023-07-31T03:41:12;21.10;79.10
44063;DHT22;29727;47.606;19.130;2023-07-31T03:43:38;21.10;79.10
44063;DHT22;29727;47.606;19.130;2023-07-31T03:46:03;21.10;79.00
44063;DHT22;29727;47.606;19.130;2023-07-31T03:48:29;21.10;78.80
44063;DHT22;29727;47.606;19.130;2023-07-31T03:50:55;21.10;78.70
44063;DHT22;29727;47.606;19.130;2023-07-31T03:53:21;21.10;78.30
44063;DHT22;29727;47.606;19.130;2023-07-31T03:55:46;21.10;78.40
44063;DHT22;29727;47.606;19.130;2023-07-31T03:58:12;20.30;76.90
44063;DHT22;29727;47.606;19.130;2023-07-31T04:00:39;21.10;77.60
44063;DHT22;29727;47.606;19.130;2023-07-31T04:03:05;21.10;76.60
44063;DHT22;29727;47.606;19.130;2023-07-31T04:05:32;21.10;75.70
44063;DHT22;29727;47.606;19.130;2023-07-31T04:07:58;22.60;74.50
44063;DHT22;29727;47.606;19.130;2023-07-31T04:10:23;22.20;74.40
44063;DHT22;29727;47.606;19.130;2023-07-31T04:12:49;21.40;73.40
44063;DHT22;29727;47.606;19.130;2023-07-31T04:17:41;21.50;73.90
44063;DHT22;29727;47.606;19.130;2023-07-31T04:20:07;21.50;72.90
44063;DHT22;29727;47.606;19.130;2023-07-31T04:22:33;21.50;73.70
44063;DHT22;29727;47.606;19.130;2023-07-31T04:24:59;21.60;74.00
44063;DHT22;29727;47.606;19.130;2023-07-31T04:27:25;21.60;73.00
44063;DHT22;29727;47.606;19.130;2023-07-31T04:29:50;21.60;72.70
44063;DHT22;29727;47.606;19.130;2023-07-31T04:32:16;21.60;72.70
44063;DHT22;29727;47.606;19.130;2023-07-31T04:34:42;21.60;72.80
44063;DHT22;29727;47.606;19.130;2023-07-31T04:37:08;21.70;73.60
44063;DHT22;29727;47.606;19.130;2023-07-31T04:39:34;21.70;73.20
44063;DHT22;29727;47.606;19.130;2023-07-31T04:41:59;21.80;72.90
44063;DHT22;29727;47.606;19.130;2023-07-31T04:44:25;21.80;71.40
44063;DHT22;29727;47.606;19.130;2023-07-31T04:46:51;21.80;71.80
44063;DHT22;29727;47.606;19.130;2023-07-31T04:49:16;21.80;72.10
44063;DHT22;29727;47.606;19.130;2023-07-31T04:51:42;21.80;71.80
44063;DHT22;29727;47.606;19.130;2023-07-31T04:54:08;21.80;72.30
44063;DHT22;29727;47.606;19.130;2023-07-31T04:56:33;21.90;71.90
44063;DHT22;29727;47.606;19.130;2023-07-31T04:58:59;21.90;72.30
44063;DHT22;29727;47.606;19.130;2023-07-31T05:01:25;22.00;73.30
44063;DHT22;29727;47.606;19.130;2023-07-31T05:03:51;22.00;74.10
44063;DHT22;29727;47.606;19.130;2023-07-31T05:06:16;22.10;72.00
44063;DHT22;29727;47.606;19.130;2023-07-31T05:08:42;22.10;72.60
44063;DHT22;29727;47.606;19.130;2023-07-31T05:11:08;22.00;72.90
44063;DHT22;29727;47.606;19.130;2023-07-31T05:13:33;22.10;73.60
44063;DHT22;29727;47.606;19.130;2023-07-31T05:15:59;22.10;73.70
44063;DHT22;29727;47.606;19.130;2023-07-31T05:18:25;22.10;73.70
44063;DHT22;29727;47.606;19.130;2023-07-31T05:20:50;22.10;73.60
44063;DHT22;29727;47.606;19.130;2023-07-31T05:23:16;22.10;72.80
44063;DHT22;29727;47.606;19.130;2023-07-31T05:25:42;22.20;72.40
44063;DHT22;29727;47.606;19.130;2023-07-31T05:28:07;22.10;71.70
44063;DHT22;29727;47.606;19.130;2023-07-31T05:30:33;22.10;72.20
44063;DHT22;29727;47.606;19.130;2023-07-31T05:32:59;22.10;72.10
44063;DHT22;29727;47.606;19.130;2023-07-31T05:35:24;22.10;72.00
44063;DHT22;29727;47.606;19.130;2023-07-31T05:37:50;22.10;71.20
44063;DHT22;29727;47.606;19.130;2023-07-31T05:40:16;22.10;70.70
44063;DHT22;29727;47.606;19.130;2023-07-31T05:42:41;22.10;68.20
44063;DHT22;29727;47.606;19.130;2023-07-31T05:45:07;22.10;66.20
44063;DHT22;29727;47.606;19.130;2023-07-31T05:47:33;22.10;66.90
44063;DHT22;29727;47.606;19.130;2023-07-31T05:49:59;22.10;66.60
44063;DHT22;29727;47.606;19.130;2023-07-31T05:52:25;22.10;65.50
44063;DHT22;29727;47.606;19.130;2023-07-31T05:54:50;22.00;63.10
44063;DHT22;29727;47.606;19.130;2023-07-31T05:57:16;22.00;64.10
44063;DHT22;29727;47.606;19.130;2023-07-31T05:59:42;22.00;64.50
44063;DHT22;29727;47.606;19.130;2023-07-31T06:02:08;21.90;64.90
44063;DHT22;29727;47.606;19.130;2023-07-31T06:04:33;21.90;64.40
44063;DHT22;29727;47.606;19.130;2023-07-31T06:07:00;21.90;64.70
44063;DHT22;29727;47.606;19.130;2023-07-31T06:09:26;21.90;65.20
44063;DHT22;29727;47.606;19.130;2023-07-31T06:11:51;21.90;65.10
44063;DHT22;29727;47.606;19.130;2023-07-31T06:14:17;21.90;64.90
44063;DHT22;29727;47.606;19.130;2023-07-31T06:16:44;21.90;63.90
44063;DHT22;29727;47.606;19.130;2023-07-31T06:19:10;21.90;63.60
44063;DHT22;29727;47.606;19.130;2023-07-31T06:21:36;21.90;64.40
44063;DHT22;29727;47.606;19.130;2023-07-31T06:24:05;21.80;64.00
44063;DHT22;29727;47.606;19.130;2023-07-31T06:26:31;21.80;66.20
44063;DHT22;29727;47.606;19.130;2023-07-31T06:28:57;21.80;64.40
44063;DHT22;29727;47.606;19.130;2023-07-31T06:31:22;21.80;64.50
44063;DHT22;29727;47.606;19.130;2023-07-31T06:33:51;21.70;64.90
44063;DHT22;29727;47.606;19.130;2023-07-31T06:36:17;21.70;65.60
44063;DHT22;29727;47.606;19.130;2023-07-31T06:38:43;21.70;66.20
44063;DHT22;29727;47.606;19.130;2023-07-31T06:41:09;21.80;66.10
44063;DHT22;29727;47.606;19.130;2023-07-31T06:43:36;21.80;66.50
44063;DHT22;29727;47.606;19.130;2023-07-31T06:46:06;21.80;65.90
44063;DHT22;29727;47.606;19.130;2023-07-31T06:48:32;21.90;66.30
44063;DHT22;29727;47.606;19.130;2023-07-31T06:50:58;21.90;66.50
44063;DHT22;29727;47.606;19.130;2023-07-31T06:53:24;22.00;65.80
44063;DHT22;29727;47.606;19.130;2023-07-31T06:55:49;22.10;65.60
44063;DHT22;29727;47.606;19.130;2023-07-31T06:58:17;22.10;65.60
44063;DHT22;29727;47.606;19.130;2023-07-31T07:00:42;22.20;65.60
44063;DHT22;29727;47.606;19.130;2023-07-31T07:03:08;22.20;66.50
44063;DHT22;29727;47.606;19.130;2023-07-31T07:05:34;22.20;65.70
44063;DHT22;29727;47.606;19.130;2023-07-31T07:08:00;24.50;67.00
44063;DHT22;29727;47.606;19.130;2023-07-31T07:10:25;22.20;66.10
44063;DHT22;29727;47.606;19.130;2023-07-31T07:12:51;22.10;66.50
44063;DHT22;29727;47.606;19.130;2023-07-31T07:15:17;22.10;67.10
44063;DHT22;29727;47.606;19.130;2023-07-31T07:17:42;22.20;67.70
44063;DHT22;29727;47.606;19.130;2023-07-31T07:20:08;22.20;67.10
44063;DHT22;29727;47.606;19.130;2023-07-31T07:22:34;22.20;64.40
44063;DHT22;29727;47.606;19.130;2023-07-31T07:25:00;22.20;64.50
44063;DHT22;29727;47.606;19.130;2023-07-31T07:27:25;22.20;64.20
44063;DHT22;29727;47.606;19.130;2023-07-31T07:29:51;22.10;64.50
44063;DHT22;29727;47.606;19.130;2023-07-31T07:32:20;22.10;63.20
44063;DHT22;29727;47.606;19.130;2023-07-31T07:34:47;22.10;63.90
44063;DHT22;29727;47.606;19.130;2023-07-31T07:37:13;22.20;63.50
44063;DHT22;29727;47.606;19.130;2023-07-31T07:39:39;22.20;63.00
44063;DHT22;29727;47.606;19.130;2023-07-31T07:42:04;22.30;60.60
44063;DHT22;29727;47.606;19.130;2023-07-31T07:44:30;22.40;59.40
44063;DHT22;29727;47.606;19.130;2023-07-31T07:46:55;22.40;59.60
44063;DHT22;29727;47.606;19.130;2023-07-31T07:49:21;22.50;61.50
44063;DHT22;29727;47.606;19.130;2023-07-31T07:51:48;22.50;60.70
44063;DHT22;29727;47.606;19.130;2023-07-31T07:54:14;22.70;57.70
44063;DHT22;29727;47.606;19.130;2023-07-31T07:56:40;22.70;57.50
44063;DHT22;29727;47.606;19.130;2023-07-31T07:59:05;22.80;57.90
44063;DHT22;29727;47.606;19.130;2023-07-31T08:01:31;22.90;58.20
44063;DHT22;29727;47.606;19.130;2023-07-31T08:03:57;23.00;56.10
44063;DHT22;29727;47.606;19.130;2023-07-31T08:06:23;23.10;56.20
44063;DHT22;29727;47.606;19.130;2023-07-31T08:08:49;23.20;55.00
44063;DHT22;29727;47.606;19.130;2023-07-31T08:11:15;23.30;55.80
44063;DHT22;29727;47.606;19.130;2023-07-31T08:13:41;23.30;56.50
44063;DHT22;29727;47.606;19.130;2023-07-31T08:16:06;23.40;55.60
44063;DHT22;29727;47.606;19.130;2023-07-31T08:18:32;23.60;53.90
44063;DHT22;29727;47.606;19.130;2023-07-31T08:20:58;23.60;53.90
44063;DHT22;29727;47.606;19.130;2023-07-31T08:23:24;23.60;53.50
44063;DHT22;29727;47.606;19.130;2023-07-31T08:25:50;23.60;53.90
44063;DHT22;29727;47.606;19.130;2023-07-31T08:28:16;23.50;54.00
44063;DHT22;29727;47.606;19.130;2023-07-31T08:30:42;23.50;54.80
44063;DHT22;29727;47.606;19.130;2023-07-31T08:33:08;23.50;56.10
44063;DHT22;29727;47.606;19.130;2023-07-31T08:35:34;23.50;56.00
44063;DHT22;29727;47.606;19.130;2023-07-31T08:37:59;23.60;55.60
44063;DHT22;29727;47.606;19.130;2023-07-31T08:40:25;23.80;54.20
44063;DHT22;29727;47.606;19.130;2023-07-31T08:42:53;23.70;54.60
44063;DHT22;29727;47.606;19.130;2023-07-31T08:45:20;23.80;54.90
44063;DHT22;29727;47.606;19.130;2023-07-31T08:47:48;23.80;54.50
44063;DHT22;29727;47.606;19.130;2023-07-31T08:50:15;23.90;54.60
44063;DHT22;29727;47.606;19.130;2023-07-31T08:52:41;24.00;54.70
44063;DHT22;29727;47.606;19.130;2023-07-31T08:55:07;24.00;53.70
44063;DHT22;29727;47.606;19.130;2023-07-31T08:57:37;24.10;54.40
44063;DHT22;29727;47.606;19.130;2023-07-31T09:00:05;24.10;54.80
44063;DHT22;29727;47.606;19.130;2023-07-31T09:02:52;24.20;55.40
44063;DHT22;29727;47.606;19.130;2023-07-31T09:05:19;24.30;54.40
44063;DHT22;29727;47.606;19.130;2023-07-31T09:07:47;24.40;54.00
44063;DHT22;29727;47.606;19.130;2023-07-31T09:10:14;24.40;53.10
44063;DHT22;29727;47.606;19.130;2023-07-31T09:12:40;24.50;53.40
44063;DHT22;29727;47.606;19.130;2023-07-31T09:15:06;24.50;53.10
44063;DHT22;29727;47.606;19.130;2023-07-31T09:17:34;24.50;51.40
44063;DHT22;29727;47.606;19.130;2023-07-31T09:20:20;24.50;52.40
44063;DHT22;29727;47.606;19.130;2023-07-31T09:22:48;24.60;52.30
44063;DHT22;29727;47.606;19.130;2023-07-31T09:25:23;24.60;52.90
44063;DHT22;29727;47.606;19.130;2023-07-31T09:28:01;24.70;53.70
44063;DHT22;29727;47.606;19.130;2023-07-31T09:30:27;24.80;54.20
44063;DHT22;29727;47.606;19.130;2023-07-31T09:33:06;24.80;52.00
44063;DHT22;29727;47.606;19.130;2023-07-31T09:35:34;24.90;52.80
44063;DHT22;29727;47.606;19.130;2023-07-31T09:38:07;24.90;52.00
44063;DHT22;29727;47.606;19.130;2023-07-31T09:40:34;25.00;51.40
44063;DHT22;29727;47.606;19.130;2023-07-31T09:43:05;25.00;51.60
44063;DHT22;29727;47.606;19.130;2023-07-31T09:45:35;25.00;51.30
44063;DHT22;29727;47.606;19.130;2023-07-31T09:48:02;25.10;51.70
44063;DHT22;29727;47.606;19.130;2023-07-31T09:50:28;25.20;50.70
44063;DHT22;29727;47.606;19.130;2023-07-31T09:55:21;25.10;51.70
44063;DHT22;29727;47.606;19.130;2023-07-31T09:57:48;25.10;51.00
44063;DHT22;29727;47.606;19.130;2023-07-31T10:00:18;25.10;50.30
44063;DHT22;29727;47.606;19.130;2023-07-31T10:02:46;25.20;50.80
44063;DHT22;29727;47.606;19.130;2023-07-31T10:05:15;25.10;50.60
44063;DHT22;29727;47.606;19.130;2023-07-31T10:07:49;25.20;51.30
44063;DHT22;29727;47.606;19.130;2023-07-31T10:10:16;25.20;50.60
44063;DHT22;29727;47.606;19.130;2023-07-31T10:12:46;25.30;52.70
44063;DHT22;29727;47.606;19.130;2023-07-31T10:15:14;25.40;50.00
44063;DHT22;29727;47.606;19.130;2023-07-31T10:17:40;25.50;49.80
44063;DHT22;29727;47.606;19.130;2023-07-31T10:20:07;25.40;50.30
44063;DHT22;29727;47.606;19.130;2023-07-31T10:22:34;25.50;49.90
44063;DHT22;29727;47.606;19.130;2023-07-31T10:25:00;25.40;49.50
44063;DHT22;29727;47.606;19.130;2023-07-31T10:27:26;25.40;50.40
44063;DHT22;29727;47.606;19.130;2023-07-31T10:29:57;25.50;51.40
44063;DHT22;29727;47.606;19.130;2023-07-31T10:32:25;25.50;50.40
44063;DHT22;29727;47.606;19.130;2023-07-31T10:34:51;25.50;51.90
44063;DHT22;29727;47.606;19.130;2023-07-31T10:37:56;25.70;52.40
44063;DHT22;29727;47.606;19.130;2023-07-31T10:40:19;25.90;50.40
44063;DHT22;29727;47.606;19.130;2023-07-31T10:42:49;25.90;50.40
44063;DHT22;29727;47.606;19.130;2023-07-31T10:45:34;25.90;50.50
44063;DHT22;29727;47.606;19.130;2023-07-31T10:48:03;25.90;51.20
44063;DHT22;29727;47.606;19.130;2023-07-31T10:50:31;25.90;52.50
44063;DHT22;29727;47.606;19.130;2023-07-31T10:53:00;25.90;50.90
44063;DHT22;29727;47.606;19.130;2023-07-31T10:55:39;25.90;50.40
44063;DHT22;29727;47.606;19.130;2023-07-31T10:58:10;25.80;50.20
44063;DHT22;29727;47.606;19.130;2023-07-31T11:00:38;25.80;51.80
44063;DHT22;29727;47.606;19.130;2023-07-31T11:03:25;25.90;51.50
44063;DHT22;29727;47.606;19.130;2023-07-31T11:05:51;25.90;51.80
44063;DHT22;29727;47.606;19.130;2023-07-31T11:08:23;26.00;50.80
44063;DHT22;29727;47.606;19.130;2023-07-31T11:13:27;25.90;50.40
44063;DHT22;29727;47.606;19.130;2023-07-31T11:15:53;25.90;49.40
44063;DHT22;29727;47.606;19.130;2023-07-31T11:18:19;25.90;51.30
44063;DHT22;29727;47.606;19.130;2023-07-31T11:20:45;26.00;50.00
44063;DHT22;29727;47.606;19.130;2023-07-31T11:23:11;26.10;50.60
44063;DHT22;29727;47.606;19.130;2023-07-31T11:25:38;26.20;49.90
44063;DHT22;29727;47.606;19.130;2023-07-31T11:28:09;26.30;49.80
44063;DHT22;29727;47.606;19.130;2023-07-31T11:30:35;26.40;49.80
44063;DHT22;29727;47.606;19.130;2023-07-31T11:33:03;26.50;49.00
44063;DHT22;29727;47.606;19.130;2023-07-31T11:35:43;26.50;49.30
44063;DHT22;29727;47.606;19.130;2023-07-31T11:38:23;26.60;49.50
44063;DHT22;29727;47.606;19.130;2023-07-31T11:40:49;26.80;49.40
44063;DHT22;29727;47.606;19.130;2023-07-31T11:43:15;26.90;50.00
44063;DHT22;29727;47.606;19.130;2023-07-31T11:45:48;27.00;50.20
44063;DHT22;29727;47.606;19.130;2023-07-31T11:48:24;27.10;49.30
44063;DHT22;29727;47.606;19.130;2023-07-31T11:50:52;27.20;50.60
44063;DHT22;29727;47.606;19.130;2023-07-31T11:53:23;27.20;47.50
44063;DHT22;29727;47.606;19.130;2023-07-31T11:55:50;27.20;48.40
44063;DHT22;29727;47.606;19.130;2023-07-31T11:58:17;27.20;47.70
44063;DHT22;29727;47.606;19.130;2023-07-31T12:00:43;27.20;47.40
44063;DHT22;29727;47.606;19.130;2023-07-31T12:03:10;27.20;46.90
44063;DHT22;29727;47.606;19.130;2023-07-31T12:05:37;27.30;46.80
44063;DHT22;29727;47.606;19.130;2023-07-31T12:08:09;27.40;47.00
44063;DHT22;29727;47.606;19.130;2023-07-31T12:10:36;27.30;47.30
44063;DHT22;29727;47.606;19.130;2023-07-31T12:13:12;27.40;48.80
44063;DHT22;29727;47.606;19.130;2023-07-31T12:15:44;27.60;47.50
44063;DHT22;29727;47.606;19.130;2023-07-31T12:18:15;27.60;46.50
44063;DHT22;29727;47.606;19.130;2023-07-31T12:20:46;27.60;46.90
44063;DHT22;29727;47.606;19.130;2023-07-31T12:23:16;27.60;46.90
44063;DHT22;29727;47.606;19.130;2023-07-31T12:25:42;27.70;46.90
44063;DHT22;29727;47.606;19.130;2023-07-31T12:28:08;27.70;46.60
44063;DHT22;29727;47.606;19.130;2023-07-31T12:30:38;27.70;46.60
44063;DHT22;29727;47.606;19.130;2023-07-31T12:33:12;27.80;46.00
44063;DHT22;29727;47.606;19.130;2023-07-31T12:35:41;27.80;46.60
44063;DHT22;29727;47.606;19.130;2023-07-31T12:38:07;27.80;47.20
44063;DHT22;29727;47.606;19.130;2023-07-31T12:40:32;27.90;47.30
44063;DHT22;29727;47.606;19.130;2023-07-31T12:43:01;28.00;49.10
44063;DHT22;29727;47.606;19.130;2023-07-31T12:45:28;28.20;46.50
44063;DHT22;29727;47.606;19.130;2023-07-31T12:47:53;28.20;44.80
44063;DHT22;29727;47.606;19.130;2023-07-31T12:50:19;28.10;45.90
44063;DHT22;29727;47.606;19.130;2023-07-31T12:52:45;28.00;45.90
44063;DHT22;29727;47.606;19.130;2023-07-31T12:55:10;27.90;45.30
44063;DHT22;29727;47.606;19.130;2023-07-31T12:57:36;27.80;46.00
44063;DHT22;29727;47.606;19.130;2023-07-31T13:00:03;27.70;47.10
44063;DHT22;29727;47.606;19.130;2023-07-31T13:02:29;27.60;46.80
44063;DHT22;29727;47.606;19.130;2023-07-31T13:04:54;27.60;48.10
44063;DHT22;29727;47.606;19.130;2023-07-31T13:07:22;27.60;47.40
44063;DHT22;29727;47.606;19.130;2023-07-31T13:09:48;27.70;45.70
44063;DHT22;29727;47.606;19.130;2023-07-31T13:12:13;27.70;45.90
44063;DHT22;29727;47.606;19.130;2023-07-31T13:14:39;27.90;46.90
44063;DHT22;29727;47.606;19.130;2023-07-31T13:17:05;28.00;46.10
44063;DHT22;29727;47.606;19.130;2023-07-31T13:19:30;28.20;46.50
44063;DHT22;29727;47.606;19.130;2023-07-31T13:21:56;28.30;46.70
44063;DHT22;29727;47.606;19.130;2023-07-31T13:24:22;28.40;45.70
44063;DHT22;29727;47.606;19.130;2023-07-31T13:26:47;28.60;46.30
44063;DHT22;29727;47.606;19.130;2023-07-31T13:29:13;28.70;45.20
44063;DHT22;29727;47.606;19.130;2023-07-31T13:31:38;28.80;45.80
44063;DHT22;29727;47.606;19.130;2023-07-31T13:34:04;28.80;45.70
44063;DHT22;29727;47.606;19.130;2023-07-31T13:36:30;28.80;46.60
44063;DHT22;29727;47.606;19.130;2023-07-31T13:38:56;28.80;43.40
44063;DHT22;29727;47.606;19.130;2023-07-31T13:41:21;28.80;44.40
44063;DHT22;29727;47.606;19.130;2023-07-31T13:43:47;28.70;45.10
44063;DHT22;29727;47.606;19.130;2023-07-31T13:46:12;28.60;45.40
44063;DHT22;29727;47.606;19.130;2023-07-31T13:48:38;28.50;44.80
44063;DHT22;29727;47.606;19.130;2023-07-31T13:51:04;28.50;45.80
44063;DHT22;29727;47.606;19.130;2023-07-31T13:53:30;28.40;45.10
44063;DHT22;29727;47.606;19.130;2023-07-31T13:55:56;28.40;44.30
44063;DHT22;29727;47.606;19.130;2023-07-31T13:58:21;28.40;45.10
44063;DHT22;29727;47.606;19.130;2023-07-31T14:00:47;28.40;44.70
44063;DHT22;29727;47.606;19.130;2023-07-31T14:03:12;28.30;45.00
44063;DHT22;29727;47.606;19.130;2023-07-31T14:05:38;28.30;47.30
44063;DHT22;29727;47.606;19.130;2023-07-31T14:08:04;28.30;45.30
44063;DHT22;29727;47.606;19.130;2023-07-31T14:10:29;28.30;44.30
44063;DHT22;29727;47.606;19.130;2023-07-31T14:12:55;28.30;43.90
44063;DHT22;29727;47.606;19.130;2023-07-31T14:15:20;28.20;43.70
44063;DHT22;29727;47.606;19.130;2023-07-31T14:17:46;28.10;44.00
44063;DHT22;29727;47.606;19.130;2023-07-31T14:20:12;28.00;44.20
44063;DHT22;29727;47.606;19.130;2023-07-31T14:22:38;28.00;45.50
44063;DHT22;29727;47.606;19.130;2023-07-31T14:25:04;27.90;43.80
44063;DHT22;29727;47.606;19.130;2023-07-31T14:27:30;27.90;44.00
44063;DHT22;29727;47.606;19.130;2023-07-31T14:29:56;27.90;44.30
44063;DHT22;29727;47.606;19.130;2023-07-31T14:32:22;27.80;44.40
44063;DHT22;29727;47.606;19.130;2023-07-31T14:34:51;27.80;45.00
44063;DHT22;29727;47.606;19.130;2023-07-31T14:37:17;27.70;44.50
44063;DHT22;29727;47.606;19.130;2023-07-31T14:39:43;27.70;43.40
44063;DHT22;29727;47.606;19.130;2023-07-31T14:42:14;27.60;44.00
44063;DHT22;29727;47.606;19.130;2023-07-31T14:44:41;27.50;44.60
44063;DHT22;29727;47.606;19.130;2023-07-31T14:47:07;27.50;44.80
44063;DHT22;29727;47.606;19.130;2023-07-31T14:49:33;27.50;45.20
44063;DHT22;29727;47.606;19.130;2023-07-31T14:51:58;27.50;45.10
44063;DHT22;29727;47.606;19.130;2023-07-31T14:54:24;27.50;44.80
44063;DHT22;29727;47.606;19.130;2023-07-31T14:56:49;27.50;45.10
44063;DHT22;29727;47.606;19.130;2023-07-31T14:59:15;27.50;46.20
44063;DHT22;29727;47.606;19.130;2023-07-31T15:01:41;27.60;45.20
44063;DHT22;29727;47.606;19.130;2023-07-31T15:04:06;27.60;45.90
44063;DHT22;29727;47.606;19.130;2023-07-31T15:06:32;27.70;44.70
44063;DHT22;29727;47.606;19.130;2023-07-31T15:11:24;27.80;44.70
44063;DHT22;29727;47.606;19.130;2023-07-31T15:13:50;27.80;45.60
44063;DHT22;29727;47.606;19.130;2023-07-31T15:16:16;27.80;45.80
44063;DHT22;29727;47.606;19.130;2023-07-31T15:18:42;27.80;45.80
44063;DHT22;29727;47.606;19.130;2023-07-31T15:21:07;27.80;47.10
44063;DHT22;29727;47.606;19.130;2023-07-31T15:23:34;27.80;46.70
44063;DHT22;29727;47.606;19.130;2023-07-31T15:26:00;27.80;46.40
44063;DHT22;29727;47.606;19.130;2023-07-31T15:28:25;27.80;45.00
44063;DHT22;29727;47.606;19.130;2023-07-31T15:30:51;27.80;44.30